Time;durP1;ratioP1;P1;durP2;ratioP2;P2;SDS_P1;SDS_P2;PMS_P1;PMS_P2;Temp;Humidity;BMP_temperature;BMP_pressure;BME280_temperature;BME280_humidity;BME280_pressure;Samples;Min_cycle;Max_cycle;Signal;HPM_P1;HPM_P2
2021/06/29 00:01:58;;;;;;;7.40;6.70;;;23.60;91.60;;;;;;5096832;28;20953;-79
2021/06/29 00:04:24;;;;;;;10.63;8.60;;;23.60;91.70;;;;;;5097041;28;20191;-79
2021/06/29 00:06:50;;;;;;;8.07;6.97;;;23.60;91.80;;;;;;5098027;28;20167;-79
2021/06/29 00:09:15;;;;;;;9.80;7.53;;;23.60;91.90;;;;;;5098192;28;20509;-79
2021/06/29 00:11:42;;;;;;;8.80;7.90;;;23.60;91.90;;;;;;5096648;28;20654;-79
2021/06/29 00:14:08;;;;;;;9.67;7.97;;;23.50;92.10;;;;;;5097476;28;20193;-79
2021/06/29 00:16:34;;;;;;;8.73;7.40;;;23.60;92.20;;;;;;5098562;28;20436;-79
2021/06/29 00:19:00;;;;;;;8.30;7.30;;;23.50;91.90;;;;;;5096198;28;20181;-80
2021/06/29 00:21:25;;;;;;;9.97;8.17;;;23.50;92.20;;;;;;5096911;28;20446;-80
2021/06/29 00:23:51;;;;;;;8.13;7.33;;;23.50;92.20;;;;;;5098948;28;20216;-79
2021/06/29 00:26:17;;;;;;;8.83;7.33;;;23.50;92.10;;;;;;5097816;28;20500;-79
2021/06/29 00:28:42;;;;;;;8.50;7.17;;;23.50;92.40;;;;;;5097240;28;20548;-79
2021/06/29 00:31:08;;;;;;;9.87;8.13;;;23.50;92.70;;;;;;5079233;28;20176;-79
2021/06/29 00:33:34;;;;;;;7.93;7.13;;;23.40;92.40;;;;;;5098051;28;20628;-79
2021/06/29 00:35:59;;;;;;;8.87;8.07;;;23.40;92.70;;;;;;5096605;28;20185;-79
2021/06/29 00:38:25;;;;;;;8.63;7.50;;;23.40;92.80;;;;;;5079751;28;20183;-79
2021/06/29 00:40:51;;;;;;;8.47;7.57;;;23.40;93.20;;;;;;5096652;28;20202;-80
2021/06/29 00:43:17;;;;;;;8.33;7.50;;;23.40;93.00;;;;;;5096171;28;20203;-80
2021/06/29 00:45:42;;;;;;;8.73;7.47;;;23.40;93.30;;;;;;5096678;28;20501;-79
2021/06/29 00:48:08;;;;;;;10.33;8.50;;;23.40;93.40;;;;;;5097719;28;20603;-79
2021/06/29 00:50:34;;;;;;;10.03;7.97;;;23.30;93.40;;;;;;5097996;28;20408;-80
2021/06/29 00:53:00;;;;;;;10.37;8.40;;;23.20;93.60;;;;;;5097340;28;20278;-80
2021/06/29 00:55:25;;;;;;;9.50;7.87;;;23.20;93.80;;;;;;5096891;28;20498;-80
2021/06/29 00:57:52;;;;;;;9.57;8.23;;;23.20;94.20;;;;;;5079195;28;20187;-80
2021/06/29 01:00:19;;;;;;;11.03;7.70;;;23.20;94.10;;;;;;5098518;28;20206;-80
2021/06/29 01:02:45;;;;;;;9.20;8.20;;;23.20;94.40;;;;;;5096688;28;20548;-80
2021/06/29 01:05:11;;;;;;;9.50;7.83;;;23.20;94.40;;;;;;5079709;28;20730;-80
2021/06/29 01:07:37;;;;;;;9.00;8.10;;;23.20;94.50;;;;;;5097999;28;20171;-80
2021/06/29 01:10:07;;;;;;;11.40;8.67;;;23.20;94.50;;;;;;5096670;28;20433;-80
2021/06/29 01:12:35;;;;;;;9.10;8.03;;;23.20;94.60;;;;;;5097913;28;20191;-80
2021/06/29 01:15:00;;;;;;;7.93;7.17;;;23.10;94.80;;;;;;5096043;28;20413;-79
2021/06/29 01:17:27;;;;;;;11.77;8.70;;;23.10;95.10;;;;;;5096491;28;20465;-80
2021/06/29 01:19:53;;;;;;;8.87;7.97;;;23.10;95.30;;;;;;5097829;28;20195;-80
2021/06/29 01:22:20;;;;;;;11.00;8.80;;;23.10;95.40;;;;;;5079236;28;20420;-80
2021/06/29 01:24:57;;;;;;;12.73;9.13;;;23.10;95.70;;;;;;5095383;28;20417;-79
2021/06/29 01:32:16;;;;;;;8.10;7.30;;;23.10;96.30;;;;;;5096257;28;20184;-80
2021/06/29 01:34:42;;;;;;;10.33;8.13;;;23.10;96.70;;;;;;5095515;28;20195;-80
2021/06/29 01:37:08;;;;;;;10.60;8.00;;;23.10;97.00;;;;;;5096188;28;20412;-79
2021/06/29 01:39:34;;;;;;;8.80;7.80;;;23.10;97.40;;;;;;5095801;28;20457;-79
2021/06/29 01:42:00;;;;;;;8.67;7.87;;;23.10;97.60;;;;;;5095708;28;20435;-80
2021/06/29 01:44:33;;;;;;;9.90;8.90;;;23.10;98.10;;;;;;5095696;28;20195;-79
2021/06/29 01:47:00;;;;;;;11.47;9.27;;;23.10;98.60;;;;;;5095407;28;20237;-79
2021/06/29 01:49:26;;;;;;;8.57;7.77;;;23.10;98.80;;;;;;5094292;28;20432;-79
2021/06/29 01:51:53;;;;;;;10.80;8.77;;;23.00;99.30;;;;;;5093418;28;20936;-80
2021/06/29 01:54:21;;;;;;;10.00;8.10;;;23.00;99.80;;;;;;5095262;28;20444;-79
2021/06/29 01:56:48;;;;;;;8.53;7.17;;;23.00;99.90;;;;;;5095058;28;20421;-79
2021/06/29 01:59:15;;;;;;;9.40;8.10;;;23.00;99.90;;;;;;5093184;28;20756;-79
2021/06/29 02:01:43;;;;;;;10.23;9.27;;;23.00;99.90;;;;;;5076725;28;20430;-79
2021/06/29 02:04:08;;;;;;;10.40;8.13;;;23.00;99.90;;;;;;5092798;28;20436;-80
2021/06/29 02:06:34;;;;;;;8.93;8.07;;;23.00;99.90;;;;;;5094255;28;20829;-79
2021/06/29 02:08:59;;;;;;;9.77;8.20;;;23.00;99.90;;;;;;5095390;28;20242;-79
2021/06/29 02:11:25;;;;;;;12.00;9.17;;;22.90;99.90;;;;;;5096993;28;20665;-79
2021/06/29 02:13:50;;;;;;;8.60;7.70;;;22.90;99.90;;;;;;5104653;28;20277;-79
2021/06/29 02:16:16;;;;;;;9.40;8.47;;;22.90;99.90;;;;;;5105039;28;20167;-80
2021/06/29 02:18:41;;;;;;;11.73;9.07;;;22.90;99.90;;;;;;5105205;28;20183;-79
2021/06/29 02:21:08;;;;;;;9.10;8.20;;;22.90;99.90;;;;;;5082782;28;20207;-79
2021/06/29 02:23:33;;;;;;;10.03;9.03;;;22.90;99.90;;;;;;5098324;28;20218;-80
2021/06/29 02:26:00;;;;;;;8.73;7.70;;;22.80;99.90;;;;;;5104791;28;20409;-79
2021/06/29 02:28:26;;;;;;;10.10;9.10;;;22.90;99.90;;;;;;5085974;28;20176;-80
2021/06/29 02:30:52;;;;;;;9.23;8.20;;;22.90;99.90;;;;;;5096773;28;20433;-80
2021/06/29 02:33:17;;;;;;;9.90;8.50;;;22.90;99.90;;;;;;5095979;28;20471;-80
2021/06/29 02:35:43;;;;;;;10.30;8.67;;;22.90;99.90;;;;;;5095647;28;20238;-79
2021/06/29 02:38:08;;;;;;;9.97;8.63;;;22.90;99.90;;;;;;5096663;28;20610;-80
2021/06/29 02:40:34;;;;;;;9.07;8.17;;;22.90;99.90;;;;;;5097113;28;20211;-80
2021/06/29 02:43:01;;;;;;;10.23;9.20;;;22.90;99.90;;;;;;5096825;28;20187;-81
2021/06/29 02:45:27;;;;;;;9.23;8.23;;;22.90;99.90;;;;;;5095234;28;20435;-81
2021/06/29 02:47:56;;;;;;;10.10;8.70;;;22.90;99.90;;;;;;5095797;28;20410;-80
2021/06/29 02:50:22;;;;;;;10.80;8.97;;;22.90;99.90;;;;;;5096855;28;20497;-80
2021/06/29 02:52:48;;;;;;;9.90;8.90;;;22.90;99.90;;;;;;5094936;28;20441;-80
2021/06/29 02:55:15;;;;;;;9.97;8.73;;;22.90;99.90;;;;;;5095303;28;20432;-80
2021/06/29 02:57:42;;;;;;;8.87;7.97;;;22.90;99.90;;;;;;5096628;28;20183;-80
2021/06/29 03:00:10;;;;;;;12.50;9.90;;;22.80;99.90;;;;;;5096884;28;20449;-80
2021/06/29 03:02:36;;;;;;;12.50;9.80;;;22.90;99.90;;;;;;5078156;28;20811;-79
2021/06/29 03:05:03;;;;;;;10.33;8.43;;;22.80;99.90;;;;;;5096170;28;20414;-80
2021/06/29 03:07:28;;;;;;;10.00;8.97;;;22.80;99.90;;;;;;5094024;28;20171;-81
2021/06/29 03:09:54;;;;;;;13.60;9.40;;;22.80;99.90;;;;;;5095046;28;20782;-80
2021/06/29 03:12:20;;;;;;;9.83;8.87;;;22.80;99.90;;;;;;5095876;28;20258;-80
2021/06/29 03:14:46;;;;;;;11.00;9.63;;;22.80;99.90;;;;;;5095587;28;20190;-79
2021/06/29 03:17:12;;;;;;;11.53;9.77;;;22.80;99.90;;;;;;5094881;28;20179;-79
2021/06/29 03:19:37;;;;;;;11.80;8.83;;;22.80;99.90;;;;;;5095207;28;20513;-80
2021/06/29 03:22:04;;;;;;;10.17;8.80;;;22.80;99.90;;;;;;5095276;28;20167;-80
2021/06/29 03:24:30;;;;;;;11.30;10.20;;;22.70;99.90;;;;;;5095690;28;20264;-79
2021/06/29 03:26:56;;;;;;;13.93;9.97;;;22.80;99.90;;;;;;5094585;28;20742;-80
2021/06/29 03:29:25;;;;;;;11.10;9.90;;;22.80;99.90;;;;;;5095034;28;20184;-80
2021/06/29 03:31:50;;;;;;;10.97;8.93;;;22.90;99.90;;;;;;5094747;28;20413;-80
2021/06/29 03:34:16;;;;;;;11.77;9.60;;;22.90;99.90;;;;;;5095237;28;20452;-80
2021/06/29 03:36:42;;;;;;;9.60;8.70;;;22.90;99.90;;;;;;5077104;28;20186;-80
2021/06/29 03:39:08;;;;;;;11.13;10.00;;;22.90;99.90;;;;;;5094259;28;20235;-80
2021/06/29 03:41:34;;;;;;;10.07;8.93;;;22.90;99.90;;;;;;5095486;28;20795;-80
2021/06/29 03:44:00;;;;;;;10.10;9.10;;;22.90;99.90;;;;;;5095546;28;20429;-80
2021/06/29 03:46:25;;;;;;;9.83;8.83;;;22.90;99.90;;;;;;5094940;28;20472;-80
2021/06/29 03:48:51;;;;;;;9.33;8.37;;;22.80;99.90;;;;;;5096371;28;20178;-80
2021/06/29 03:51:16;;;;;;;11.03;9.87;;;22.90;99.90;;;;;;5078195;28;20261;-80
2021/06/29 03:53:42;;;;;;;10.40;9.07;;;22.90;99.90;;;;;;5094231;28;20674;-80
2021/06/29 03:56:23;;;;;;;12.80;9.23;;;22.90;99.90;;;;;;5095275;28;20243;-79
2021/06/29 03:58:52;;;;;;;11.20;10.10;;;22.90;99.90;;;;;;5093925;28;20167;-80
2021/06/29 04:01:18;;;;;;;12.83;10.70;;;23.00;99.90;;;;;;5077796;28;20544;-80
2021/06/29 04:03:43;;;;;;;16.80;9.50;;;23.00;99.90;;;;;;5093453;28;20453;-79
2021/06/29 04:06:09;;;;;;;11.87;10.00;;;23.00;99.90;;;;;;5093731;28;20178;-79
2021/06/29 04:08:34;;;;;;;12.70;9.77;;;23.00;99.90;;;;;;5092994;28;20670;-79
2021/06/29 04:11:00;;;;;;;10.30;9.27;;;23.00;99.90;;;;;;5094520;28;20518;-80
2021/06/29 04:13:25;;;;;;;11.60;10.20;;;22.90;99.90;;;;;;5094228;28;20674;-79
2021/06/29 04:15:51;;;;;;;13.17;10.37;;;23.00;99.90;;;;;;5094626;28;20179;-80
2021/06/29 04:18:17;;;;;;;11.33;9.47;;;22.90;99.90;;;;;;5094028;28;20170;-80
2021/06/29 04:20:43;;;;;;;13.60;10.50;;;23.00;99.90;;;;;;5094322;28;20201;-79
2021/06/29 04:23:08;;;;;;;11.93;10.73;;;23.00;99.90;;;;;;5093980;28;21022;-80
2021/06/29 04:25:37;;;;;;;11.77;10.47;;;23.00;99.90;;;;;;5095312;28;20171;-79
2021/06/29 04:28:02;;;;;;;15.23;9.80;;;23.00;99.90;;;;;;5095449;28;20179;-80
2021/06/29 04:30:28;;;;;;;10.40;9.10;;;23.00;99.90;;;;;;5077221;28;20444;-80
2021/06/29 04:32:54;;;;;;;12.30;10.20;;;23.00;99.90;;;;;;5094096;28;20199;-79
2021/06/29 04:35:19;;;;;;;12.90;10.70;;;23.10;99.90;;;;;;5098595;28;20175;-79
2021/06/29 04:37:45;;;;;;;10.50;9.50;;;23.10;99.90;;;;;;5095966;28;20181;-79
2021/06/29 04:40:11;;;;;;;11.83;9.93;;;23.10;99.90;;;;;;5095612;28;20202;-79
2021/06/29 04:42:37;;;;;;;12.67;10.20;;;23.10;99.90;;;;;;5096707;28;20721;-80
2021/06/29 04:45:04;;;;;;;11.30;9.80;;;23.20;99.90;;;;;;5096132;28;20488;-80
2021/06/29 04:47:36;;;;;;;11.80;10.60;;;23.10;99.90;;;;;;5096169;28;20410;-80
2021/06/29 04:50:03;;;;;;;10.63;9.53;;;23.20;99.90;;;;;;5096871;28;20406;-79
2021/06/29 04:52:28;;;;;;;11.83;9.70;;;23.20;99.90;;;;;;5097450;28;20427;-79
2021/06/29 04:54:54;;;;;;;11.47;10.10;;;23.20;99.90;;;;;;5097441;28;20947;-80
2021/06/29 04:57:19;;;;;;;11.63;10.43;;;23.30;99.90;;;;;;5096747;28;20336;-80
2021/06/29 04:59:45;;;;;;;12.60;10.60;;;23.30;99.90;;;;;;5097249;28;20807;-80
2021/06/29 05:02:10;;;;;;;10.87;9.37;;;23.50;99.90;;;;;;5078793;28;20171;-80
2021/06/29 05:04:36;;;;;;;13.30;10.00;;;23.60;99.90;;;;;;5096130;28;20545;-80
2021/06/29 05:07:01;;;;;;;12.23;9.97;;;23.70;99.90;;;;;;5096330;28;20171;-80
2021/06/29 05:09:27;;;;;;;10.70;9.03;;;23.80;99.90;;;;;;5096209;28;20217;-80
2021/06/29 05:11:52;;;;;;;16.10;10.83;;;24.10;99.90;;;;;;5078828;28;20178;-80
2021/06/29 05:14:18;;;;;;;20.50;12.77;;;24.30;99.90;;;;;;5095785;28;20596;-80
2021/06/29 05:16:44;;;;;;;18.20;12.17;;;24.50;99.90;;;;;;5096123;28;20186;-80
2021/06/29 05:19:09;;;;;;;16.57;12.70;;;24.60;99.90;;;;;;5078555;28;20187;-80
2021/06/29 05:21:35;;;;;;;13.53;10.70;;;24.80;99.90;;;;;;5095828;28;20180;-80
2021/06/29 05:24:00;;;;;;;15.87;10.80;;;24.90;99.90;;;;;;5096783;28;20258;-79
2021/06/29 05:26:26;;;;;;;14.07;10.97;;;25.10;99.90;;;;;;5095123;28;20179;-80
2021/06/29 05:28:51;;;;;;;11.20;9.57;;;25.20;99.90;;;;;;5079639;28;20178;-80
2021/06/29 05:31:17;;;;;;;12.93;9.03;;;25.40;99.90;;;;;;5095798;28;20175;-80
2021/06/29 05:33:42;;;;;;;13.87;11.37;;;25.60;99.90;;;;;;5096170;28;20198;-80
2021/06/29 05:36:08;;;;;;;12.10;9.03;;;25.60;99.90;;;;;;5096405;28;20175;-80
2021/06/29 05:38:34;;;;;;;9.83;8.90;;;25.40;99.90;;;;;;5095907;28;20704;-80
2021/06/29 05:40:59;;;;;;;12.20;9.80;;;25.30;99.90;;;;;;5078634;28;20594;-80
2021/06/29 05:43:25;;;;;;;13.27;10.07;;;25.20;99.90;;;;;;5097200;28;20302;-79
2021/06/29 05:45:50;;;;;;;10.43;9.33;;;25.10;99.90;;;;;;5097679;28;20181;-80
2021/06/29 05:48:18;;;;;;;14.33;9.47;;;25.00;99.90;;;;;;5095991;28;20305;-79
2021/06/29 05:50:44;;;;;;;12.27;9.90;;;24.90;99.90;;;;;;5095693;28;20324;-79
2021/06/29 05:53:10;;;;;;;11.40;8.90;;;24.80;99.90;;;;;;5094724;28;20445;-79
2021/06/29 05:55:35;;;;;;;13.63;9.77;;;24.90;99.90;;;;;;5094823;28;20500;-79
2021/06/29 05:58:01;;;;;;;11.63;9.17;;;24.90;99.90;;;;;;5094772;28;20184;-80
2021/06/29 06:00:29;;;;;;;12.10;10.10;;;24.90;99.90;;;;;;5061240;28;20274;-80
2021/06/29 06:02:55;;;;;;;13.73;10.67;;;24.90;99.90;;;;;;5095025;28;20237;-80
2021/06/29 06:05:20;;;;;;;13.60;9.70;;;24.90;99.90;;;;;;5094605;28;20409;-80
2021/06/29 06:07:46;;;;;;;11.40;10.17;;;25.00;99.90;;;;;;5094826;28;20596;-80
2021/06/29 06:10:13;;;;;;;12.20;9.47;;;25.10;99.90;;;;;;5096576;28;20191;-80
2021/06/29 06:12:39;;;;;;;12.73;10.10;;;25.20;99.90;;;;;;5094391;28;20199;-80
2021/06/29 06:15:06;;;;;;;16.77;9.50;;;25.30;99.90;;;;;;5095133;28;20449;-80
2021/06/29 06:17:32;;;;;;;11.30;9.70;;;25.40;99.90;;;;;;5094163;28;20428;-79
2021/06/29 06:19:58;;;;;;;13.80;10.20;;;25.60;99.90;;;;;;5093581;28;20457;-79
2021/06/29 06:22:24;;;;;;;13.03;10.53;;;25.80;99.90;;;;;;5094700;28;20926;-80
2021/06/29 06:24:49;;;;;;;13.63;10.67;;;25.80;99.90;;;;;;5077681;28;20203;-79
2021/06/29 06:27:16;;;;;;;11.23;10.10;;;25.70;99.90;;;;;;5095718;28;20178;-80
2021/06/29 06:29:42;;;;;;;11.40;10.20;;;25.70;99.90;;;;;;5096292;28;20176;-81
2021/06/29 06:32:10;;;;;;;15.70;10.80;;;25.70;99.90;;;;;;5098788;28;20425;-79
2021/06/29 06:34:35;;;;;;;11.63;9.90;;;25.80;99.90;;;;;;5098613;28;20418;-79
2021/06/29 06:37:01;;;;;;;12.30;10.40;;;26.00;99.90;;;;;;5100312;28;20848;-79
2021/06/29 06:39:30;;;;;;;17.63;10.67;;;26.30;99.90;;;;;;5082266;28;20218;-80
2021/06/29 06:41:55;;;;;;;13.37;10.83;;;26.80;99.90;;;;;;5101505;28;20187;-80
2021/06/29 06:44:21;;;;;;;11.57;10.37;;;27.30;99.90;;;;;;5083235;28;20471;-80
2021/06/29 06:46:46;;;;;;;12.00;10.17;;;27.70;99.90;;;;;;5096786;28;20263;-80
2021/06/29 06:49:12;;;;;;;11.20;10.00;;;27.90;99.90;;;;;;5095633;28;20176;-79
2021/06/29 06:51:37;;;;;;;13.33;10.40;;;28.20;99.90;;;;;;5095614;28;20279;-80
2021/06/29 06:54:03;;;;;;;13.83;10.50;;;28.30;99.90;;;;;;5095978;28;20194;-79
2021/06/29 06:56:29;;;;;;;12.17;10.20;;;28.40;99.90;;;;;;5093819;28;20167;-80
2021/06/29 06:58:55;;;;;;;11.00;9.70;;;28.50;99.90;;;;;;5060748;28;20622;-80
2021/06/29 07:01:21;;;;;;;11.20;10.13;;;28.30;99.90;;;;;;5095932;28;20753;-80
2021/06/29 07:03:46;;;;;;;13.20;11.83;;;28.10;99.90;;;;;;5095972;28;20274;-81
2021/06/29 07:06:13;;;;;;;11.87;10.67;;;28.00;99.90;;;;;;5096607;28;20167;-80
2021/06/29 07:08:39;;;;;;;11.60;10.40;;;28.00;99.90;;;;;;5095158;28;20194;-79
2021/06/29 07:11:06;;;;;;;12.60;11.37;;;27.90;99.90;;;;;;5094661;28;20980;-80
2021/06/29 07:13:31;;;;;;;14.50;11.93;;;27.90;99.90;;;;;;5077876;28;20524;-81
2021/06/29 07:15:57;;;;;;;19.00;11.37;;;27.80;99.90;;;;;;5094638;28;20437;-81
2021/06/29 07:18:22;;;;;;;11.73;10.47;;;27.60;99.90;;;;;;5094249;28;20172;-80
2021/06/29 07:20:48;;;;;;;11.57;10.37;;;27.80;99.90;;;;;;5094342;28;20199;-79
2021/06/29 07:23:15;;;;;;;11.70;10.50;;;27.90;99.90;;;;;;5093739;28;20207;-80
2021/06/29 07:25:42;;;;;;;13.97;12.20;;;27.90;99.90;;;;;;5095605;28;20484;-81
2021/06/29 07:28:08;;;;;;;12.27;10.97;;;28.10;99.90;;;;;;5095124;28;20422;-81
2021/06/29 07:30:35;;;;;;;12.33;10.40;;;28.50;99.90;;;;;;5093675;28;20424;-80
2021/06/29 07:33:02;;;;;;;12.53;11.23;;;28.50;99.90;;;;;;5094501;28;20425;-80
2021/06/29 07:35:30;;;;;;;14.73;11.10;;;28.30;99.90;;;;;;5094001;28;20413;-80
2021/06/29 07:37:56;;;;;;;13.80;11.77;;;28.30;99.90;;;;;;5095597;28;20424;-80
2021/06/29 07:40:22;;;;;;;20.30;11.53;;;28.00;99.90;;;;;;5094207;28;20831;-80
2021/06/29 07:42:48;;;;;;;13.97;11.40;;;27.90;99.90;;;;;;5092993;28;20434;-80
2021/06/29 07:45:14;;;;;;;13.87;11.17;;;27.50;99.90;;;;;;5093020;28;20401;-79
2021/06/29 07:47:40;;;;;;;13.33;10.10;;;27.40;99.90;;;;;;5095734;28;20164;-80
2021/06/29 07:50:09;;;;;;;18.73;11.90;;;27.40;99.90;;;;;;5095188;28;20167;-81
2021/06/29 07:52:35;;;;;;;13.83;12.13;;;27.50;99.90;;;;;;5078347;28;20441;-81
2021/06/29 07:55:03;;;;;;;13.40;11.70;;;27.60;99.90;;;;;;5094394;28;20775;-81
2021/06/29 07:57:28;;;;;;;12.30;11.10;;;27.60;99.90;;;;;;5095104;28;20437;-79
2021/06/29 07:59:54;;;;;;;12.03;10.73;;;27.70;99.90;;;;;;5093749;28;20449;-80
2021/06/29 08:02:19;;;;;;;12.10;10.90;;;27.70;99.90;;;;;;5095156;28;20210;-81
2021/06/29 08:04:46;;;;;;;11.30;10.10;;;28.00;99.90;;;;;;5094277;28;20164;-80
2021/06/29 08:07:11;;;;;;;11.00;9.90;;;28.30;99.90;;;;;;5095721;28;20164;-80
2021/06/29 08:09:37;;;;;;;11.10;10.00;;;28.40;99.90;;;;;;5098101;28;20432;-80
2021/06/29 08:12:04;;;;;;;12.50;11.20;;;28.40;99.90;;;;;;5098658;28;20171;-79
2021/06/29 08:14:29;;;;;;;10.20;9.20;;;28.30;99.90;;;;;;5097650;28;20199;-80
2021/06/29 08:16:55;;;;;;;10.10;9.10;;;28.60;99.90;;;;;;5080934;28;20509;-80
2021/06/29 08:19:21;;;;;;;12.10;11.00;;;28.30;99.90;;;;;;5097291;28;20251;-79
2021/06/29 08:21:46;;;;;;;14.40;10.17;;;28.10;99.90;;;;;;5096601;28;20229;-79
2021/06/29 08:24:12;;;;;;;14.10;9.60;;;28.10;99.90;;;;;;5098412;28;20768;-79
2021/06/29 08:26:38;;;;;;;10.43;9.33;;;27.90;99.90;;;;;;5098348;28;20566;-80
2021/06/29 08:29:03;;;;;;;15.70;10.93;;;27.90;99.90;;;;;;5079943;28;20178;-79
2021/06/29 08:31:29;;;;;;;12.70;10.17;;;27.80;99.90;;;;;;5079553;28;20179;-80
2021/06/29 08:33:55;;;;;;;10.47;9.47;;;27.90;99.90;;;;;;5098588;28;20209;-79
2021/06/29 08:36:20;;;;;;;14.27;9.00;;;28.10;99.90;;;;;;5081207;28;20175;-79
2021/06/29 08:38:47;;;;;;;14.03;9.57;;;28.20;99.90;;;;;;5098772;28;20182;-80
2021/06/29 08:41:14;;;;;;;10.57;9.47;;;28.20;99.90;;;;;;5080420;28;20507;-80
2021/06/29 08:43:40;;;;;;;10.30;8.27;;;28.30;99.90;;;;;;5096447;28;20519;-80
2021/06/29 08:46:06;;;;;;;8.90;8.10;;;28.40;99.90;;;;;;5097077;28;20836;-80
2021/06/29 08:48:32;;;;;;;9.10;8.30;;;28.50;99.90;;;;;;5096735;28;20201;-80
2021/06/29 08:51:04;;;;;;;11.37;10.17;;;28.40;99.90;;;;;;5095901;28;20413;-80
2021/06/29 08:53:30;;;;;;;11.00;9.50;;;28.50;99.90;;;;;;5097334;28;20187;-80
2021/06/29 08:55:58;;;;;;;9.03;8.23;;;28.50;99.90;;;;;;5096305;28;20908;-80
2021/06/29 08:58:24;;;;;;;28.37;11.23;;;28.50;99.90;;;;;;5095804;28;20410;-80
2021/06/29 09:00:52;;;;;;;11.13;9.00;;;28.50;99.90;;;;;;5097211;28;20451;-80
2021/06/29 09:03:18;;;;;;;13.00;8.40;;;28.50;99.90;;;;;;5078211;28;20429;-80
2021/06/29 09:05:45;;;;;;;9.27;8.07;;;28.60;99.90;;;;;;5096568;28;20851;-80
2021/06/29 09:08:13;;;;;;;9.50;8.60;;;28.60;99.90;;;;;;5095665;28;20167;-79
2021/06/29 09:10:43;;;;;;;8.00;7.20;;;28.70;99.30;;;;;;5096833;28;20409;-80
2021/06/29 09:13:10;;;;;;;19.27;7.87;;;28.70;98.80;;;;;;5095863;28;20429;-79
2021/06/29 09:15:37;;;;;;;8.80;7.90;;;28.70;98.70;;;;;;5078412;28;20417;-80
2021/06/29 09:18:06;;;;;;;8.97;8.10;;;28.70;99.30;;;;;;5095868;28;20405;-80
2021/06/29 09:20:38;;;;;;;8.40;7.60;;;28.90;98.30;;;;;;5093891;28;20483;-80
2021/06/29 09:23:17;;;;;;;11.63;7.90;;;28.90;98.00;;;;;;5093593;28;20426;-80
2021/06/29 09:25:59;;;;;;;9.63;8.73;;;28.90;99.10;;;;;;5076837;28;20414;-80
2021/06/29 09:28:28;;;;;;;15.40;8.70;;;28.90;99.30;;;;;;5095353;28;20401;-79
2021/06/29 09:31:08;;;;;;;9.37;8.37;;;28.90;99.30;;;;;;5093848;28;20409;-79
2021/06/29 09:33:37;;;;;;;9.13;8.30;;;28.80;98.60;;;;;;5095743;28;20461;-79
2021/06/29 09:36:06;;;;;;;12.17;8.37;;;28.70;98.20;;;;;;5095463;28;20424;-78
2021/06/29 09:38:37;;;;;;;9.87;8.87;;;28.70;97.20;;;;;;5087474;28;20938;-78
2021/06/29 09:41:15;;;;;;;9.63;8.70;;;28.70;97.80;;;;;;5105431;28;20472;-79
2021/06/29 09:43:48;;;;;;;8.20;7.50;;;28.60;97.60;;;;;;5106483;28;20807;-80
2021/06/29 09:46:16;;;;;;;9.73;8.07;;;28.60;97.10;;;;;;5105091;28;20444;-79
2021/06/29 09:48:52;;;;;;;10.50;9.40;;;28.60;97.80;;;;;;5099236;28;20394;-79
2021/06/29 09:51:25;;;;;;;10.03;8.90;;;28.60;97.80;;;;;;5077439;28;20555;-79
2021/06/29 09:53:52;;;;;;;9.20;8.30;;;28.60;98.00;;;;;;5094691;28;20845;-80
2021/06/29 09:56:24;;;;;;;11.53;8.50;;;28.60;98.30;;;;;;5096883;28;20409;-80
2021/06/29 09:58:53;;;;;;;8.87;7.97;;;28.60;98.20;;;;;;5095602;28;20504;-79
2021/06/29 10:01:21;;;;;;;9.33;8.20;;;28.70;97.90;;;;;;5095032;28;20457;-79
2021/06/29 10:03:52;;;;;;;9.23;8.30;;;28.70;98.50;;;;;;5094913;28;20482;-79
2021/06/29 10:06:29;;;;;;;8.80;7.90;;;28.80;97.70;;;;;;5096427;28;20410;-80
2021/06/29 10:09:12;;;;;;;10.07;9.00;;;28.90;97.50;;;;;;5096306;28;20425;-80
2021/06/29 10:11:51;;;;;;;12.90;11.13;;;29.00;97.90;;;;;;5095308;28;20492;-79
2021/06/29 10:14:21;;;;;;;11.87;10.67;;;29.00;96.80;;;;;;5096388;28;20429;-80
2021/06/29 10:16:49;;;;;;;12.47;11.37;;;29.00;96.70;;;;;;5096066;28;20413;-80
2021/06/29 10:19:31;;;;;;;11.30;10.17;;;29.10;96.40;;;;;;5095920;28;20611;-79
2021/06/29 10:22:00;;;;;;;12.70;9.30;;;29.20;96.40;;;;;;5095283;28;20282;-80
2021/06/29 10:24:28;;;;;;;10.07;9.17;;;29.40;95.80;;;;;;5093948;28;20516;-79
2021/06/29 10:26:56;;;;;;;9.33;8.43;;;29.50;95.60;;;;;;5095838;28;20408;-80
2021/06/29 10:29:27;;;;;;;10.70;9.67;;;29.50;94.40;;;;;;5097165;28;20397;-80
2021/06/29 10:31:55;;;;;;;10.77;9.40;;;29.50;94.40;;;;;;5098027;28;20421;-80
2021/06/29 10:34:24;;;;;;;10.77;9.67;;;29.50;94.00;;;;;;5101002;28;20434;-79
2021/06/29 10:36:51;;;;;;;13.40;9.70;;;29.40;93.80;;;;;;5083010;28;20409;-78
2021/06/29 10:39:19;;;;;;;11.10;9.60;;;29.40;93.30;;;;;;5097471;28;20401;-80
2021/06/29 10:41:52;;;;;;;12.43;9.03;;;29.50;92.70;;;;;;5096631;28;20797;-80
2021/06/29 10:44:20;;;;;;;10.50;9.50;;;29.40;93.40;;;;;;5097845;28;20854;-80
2021/06/29 10:46:48;;;;;;;10.80;9.80;;;29.40;93.40;;;;;;5097140;28;20439;-80
2021/06/29 10:49:28;;;;;;;10.17;9.13;;;29.40;93.90;;;;;;5099626;28;20406;-79
2021/06/29 10:51:54;;;;;;;9.77;8.87;;;29.20;93.30;;;;;;5096225;28;20436;-81
2021/06/29 10:54:43;;;;;;;9.80;8.80;;;29.10;93.40;;;;;;5095063;28;20433;-80
2021/06/29 10:57:13;;;;;;;12.20;9.17;;;29.00;93.90;;;;;;5095571;28;20401;-80
2021/06/29 10:59:41;;;;;;;10.80;9.70;;;28.90;94.00;;;;;;5094507;28;20980;-80
2021/06/29 11:02:12;;;;;;;12.10;9.17;;;28.80;94.10;;;;;;5094246;28;20488;-80
2021/06/29 11:04:46;;;;;;;10.80;8.77;;;28.60;94.70;;;;;;5096076;28;20912;-80
2021/06/29 11:07:27;;;;;;;11.93;9.90;;;28.40;98.60;;;;;;5094460;28;20405;-80
2021/06/29 11:10:15;;;;;;;13.07;10.60;;;28.10;99.90;;;;;;5096054;28;20429;-80
2021/06/29 11:12:52;;;;;;;16.70;12.27;;;27.90;99.90;;;;;;5078606;28;20441;-80
2021/06/29 11:15:37;;;;;;;15.30;12.30;;;27.50;99.90;;;;;;5095139;28;20405;-80
2021/06/29 11:18:03;;;;;;;12.77;11.33;;;27.20;99.90;;;;;;5095281;28;20420;-80
2021/06/29 11:20:46;;;;;;;12.73;11.03;;;26.90;99.90;;;;;;5094040;28;20483;-79
2021/06/29 11:23:23;;;;;;;11.67;10.47;;;26.50;99.90;;;;;;5094038;28;20503;-80
2021/06/29 11:26:11;;;;;;;9.90;8.90;;;26.40;99.90;;;;;;5078699;28;20421;-79
2021/06/29 11:28:38;;;;;;;9.53;8.57;;;26.60;99.90;;;;;;5082132;28;20460;-80
2021/06/29 11:31:05;;;;;;;10.13;9.10;;;26.30;99.90;;;;;;5095392;28;20900;-81
2021/06/29 11:33:40;;;;;;;10.20;9.03;;;26.10;99.90;;;;;;5095293;28;20425;-80
2021/06/29 11:36:26;;;;;;;10.00;8.57;;;26.30;99.90;;;;;;5094301;28;20416;-79
2021/06/29 11:38:55;;;;;;;10.60;9.50;;;26.80;99.90;;;;;;5080760;28;20417;-79
2021/06/29 11:41:37;;;;;;;11.00;9.90;;;27.10;99.90;;;;;;5094893;28;20810;-79
2021/06/29 11:44:06;;;;;;;11.10;9.07;;;27.40;99.90;;;;;;5099198;28;20849;-79
2021/06/29 11:46:47;;;;;;;10.43;9.37;;;27.40;99.90;;;;;;5098313;28;20471;-80
2021/06/29 11:49:15;;;;;;;11.70;9.27;;;27.40;99.90;;;;;;5099838;28;20454;-80
2021/06/29 11:51:51;;;;;;;10.40;8.93;;;27.60;99.90;;;;;;5098215;28;20448;-80
2021/06/29 11:54:37;;;;;;;11.10;8.77;;;27.50;99.90;;;;;;5099509;28;20428;-81
2021/06/29 11:57:35;;;;;;;10.07;9.07;;;27.90;99.90;;;;;;5100022;28;20425;-80
2021/06/29 12:00:18;;;;;;;13.33;11.03;;;28.30;99.90;;;;;;5098712;28;20944;-80
2021/06/29 12:02:45;;;;;;;13.73;11.73;;;28.50;99.90;;;;;;5097909;28;20429;-80
2021/06/29 12:05:17;;;;;;;12.57;11.27;;;28.50;99.90;;;;;;5097808;28;20925;-80
2021/06/29 12:07:50;;;;;;;12.63;11.33;;;28.50;99.90;;;;;;5099383;28;20443;-80
2021/06/29 12:10:25;;;;;;;13.40;12.00;;;28.60;99.90;;;;;;5097026;28;20433;-79
2021/06/29 12:12:58;;;;;;;12.23;11.03;;;28.60;99.90;;;;;;5098329;28;20490;-80
2021/06/29 12:15:27;;;;;;;11.90;10.70;;;28.60;99.90;;;;;;5097768;28;20467;-81
2021/06/29 12:18:00;;;;;;;14.03;12.50;;;28.80;99.90;;;;;;5080998;28;20884;-79
2021/06/29 12:20:35;;;;;;;12.10;10.80;;;29.00;99.90;;;;;;5097437;28;20460;-80
2021/06/29 12:23:03;;;;;;;12.30;11.10;;;29.10;99.90;;;;;;5098050;28;20492;-79
2021/06/29 12:25:36;;;;;;;12.23;10.73;;;29.10;99.90;;;;;;5097469;28;20421;-80
2021/06/29 12:28:10;;;;;;;11.80;10.13;;;29.20;99.90;;;;;;5097262;28;20406;-80
2021/06/29 12:30:47;;;;;;;11.47;10.43;;;29.30;99.90;;;;;;5098988;28;20417;-79
2021/06/29 12:33:17;;;;;;;11.40;10.20;;;29.30;99.90;;;;;;5097634;28;20436;-80
2021/06/29 12:35:44;;;;;;;10.90;9.80;;;29.30;99.90;;;;;;5097961;28;20436;-80
2021/06/29 12:38:16;;;;;;;14.67;11.50;;;29.30;99.90;;;;;;5099626;28;20956;-80
2021/06/29 12:40:45;;;;;;;12.40;11.10;;;29.30;99.90;;;;;;5097840;28;20819;-80
2021/06/29 12:43:31;;;;;;;12.70;11.37;;;29.30;99.90;;;;;;5079386;28;20938;-80
2021/06/29 12:46:11;;;;;;;12.30;10.97;;;29.20;99.90;;;;;;5098349;28;20420;-80